Time;durP1;ratioP1;P1;durP2;ratioP2;P2;SDS_P1;SDS_P2;PMS_P1;PMS_P2;Temp;Humidity;BMP_temperature;BMP_pressure;BME280_temperature;BME280_humidity;BME280_pressure;Samples;Min_cycle;Max_cycle;Signal;HPM_P1;HPM_P2
2023/02/25 00:00:17;;;;;;;12.35;2.50;;;5.40;99.90;;;;;;4957964;29;20111;-91
2023/02/25 00:02:44;;;;;;;23.27;2.90;;;5.20;99.90;;;;;;4936096;29;20040;-93
2023/02/25 00:05:10;;;;;;;26.85;3.40;;;5.90;99.90;;;;;;4958271;29;20399;-90
2023/02/25 00:07:35;;;;;;;17.58;2.58;;;5.90;99.90;;;;;;4957911;29;20030;-91
2023/02/25 00:10:10;;;;;;;18.10;2.40;;;5.40;99.90;;;;;;4946779;29;20091;-91
2023/02/25 00:12:38;;;;;;;29.23;3.17;;;5.30;99.90;;;;;;4939088;29;20082;-92
2023/02/25 00:15:05;;;;;;;15.35;2.80;;;6.40;99.90;;;;;;4938310;29;20036;-90
2023/02/25 00:17:34;;;;;;;23.40;3.92;;;5.40;99.90;;;;;;4938717;29;20027;-91
2023/02/25 00:20:08;;;;;;;14.70;2.53;;;6.60;99.90;;;;;;4938806;29;20032;-91
2023/02/25 00:22:37;;;;;;;23.75;3.75;;;5.40;99.90;;;;;;4938072;29;20035;-90
2023/02/25 00:25:10;;;;;;;10.30;2.03;;;6.00;99.90;;;;;;4938582;29;20036;-90
2023/02/25 00:27:36;;;;;;;15.52;2.90;;;6.10;99.90;;;;;;4938026;29;20562;-90
2023/02/25 00:30:02;;;;;;;15.43;2.50;;;5.50;99.90;;;;;;4945213;23;20064;-91
2023/02/25 00:32:30;;;;;;;19.23;3.15;;;5.40;99.90;;;;;;4952100;23;20114;-92
2023/02/25 00:37:36;;;;;;;20.48;3.28;;;5.40;99.90;;;;;;4943057;23;20058;-91
2023/02/25 00:40:04;;;;;;;12.88;2.67;;;6.30;99.90;;;;;;4945145;23;20150;-91
2023/02/25 00:42:39;;;;;;;20.95;3.53;;;6.20;99.90;;;;;;4937721;29;20046;-91
2023/02/25 00:45:05;;;;;;;21.15;2.47;;;6.00;99.90;;;;;;4938330;29;20032;-90
2023/02/25 00:47:40;;;;;;;20.95;2.88;;;5.40;99.90;;;;;;4945453;23;20056;-91
2023/02/25 00:50:15;;;;;;;22.75;2.53;;;6.00;99.90;;;;;;4937811;29;20083;-92
2023/02/25 00:52:45;;;;;;;19.30;3.05;;;5.80;99.90;;;;;;4938302;29;20492;-91
2023/02/25 00:55:16;;;;;;;17.60;3.35;;;6.00;99.90;;;;;;4938318;29;20039;-90
2023/02/25 00:57:45;;;;;;;25.58;4.53;;;5.80;99.90;;;;;;4937799;29;20542;-91
2023/02/25 01:00:17;;;;;;;22.55;2.55;;;6.10;99.90;;;;;;4938310;29;20032;-92
2023/02/25 01:02:49;;;;;;;20.40;2.65;;;5.30;99.90;;;;;;4937363;29;20042;-91
2023/02/25 01:05:20;;;;;;;14.70;2.70;;;5.60;99.90;;;;;;4937401;29;20564;-91
2023/02/25 01:07:51;;;;;;;26.45;3.22;;;5.80;99.90;;;;;;4937947;29;20075;-90
2023/02/25 01:10:20;;;;;;;24.33;3.22;;;6.40;99.90;;;;;;4936933;29;20543;-90
2023/02/25 01:12:52;;;;;;;19.48;4.03;;;5.30;99.90;;;;;;4937968;29;20086;-91
2023/02/25 01:15:29;;;;;;;26.77;3.60;;;5.70;99.90;;;;;;4937861;29;20070;-90
2023/02/25 01:17:58;;;;;;;13.90;2.72;;;5.80;99.90;;;;;;4937128;29;20032;-90
2023/02/25 01:20:29;;;;;;;24.13;3.05;;;5.80;99.90;;;;;;4937790;29;20024;-92
2023/02/25 01:22:58;;;;;;;11.93;2.45;;;5.90;99.90;;;;;;4936661;29;20059;-92
2023/02/25 01:25:29;;;;;;;15.32;3.15;;;5.60;99.90;;;;;;4935396;29;20066;-90
2023/02/25 01:27:59;;;;;;;18.10;3.08;;;6.10;99.90;;;;;;4936018;29;20122;-90
2023/02/25 01:30:30;;;;;;;16.77;2.60;;;6.10;99.90;;;;;;4935526;29;20407;-90
2023/02/25 01:33:00;;;;;;;17.15;2.63;;;5.90;99.90;;;;;;4935306;29;20119;-91
2023/02/25 01:35:35;;;;;;;17.30;2.90;;;5.70;99.90;;;;;;4936386;29;20032;-91
2023/02/25 01:38:00;;;;;;;11.07;2.22;;;6.20;99.90;;;;;;4936703;29;20078;-90
2023/02/25 01:40:31;;;;;;;9.63;2.40;;;5.90;99.90;;;;;;4937160;29;20027;-90
2023/02/25 01:43:06;;;;;;;10.63;2.15;;;5.80;99.90;;;;;;4936222;29;20031;-90
2023/02/25 01:45:43;;;;;;;23.08;2.92;;;6.00;99.90;;;;;;4936815;29;20055;-90
2023/02/25 01:48:15;;;;;;;11.00;1.73;;;5.90;99.90;;;;;;4937053;29;20044;-91
2023/02/25 01:50:47;;;;;;;15.15;2.40;;;6.10;99.90;;;;;;4937151;29;20032;-90
2023/02/25 01:53:22;;;;;;;21.75;3.15;;;5.90;99.90;;;;;;4936089;29;20482;-92
2023/02/25 01:55:49;;;;;;;12.20;2.50;;;6.00;99.90;;;;;;4937112;29;20063;-91
2023/02/25 01:58:18;;;;;;;21.50;2.65;;;6.70;99.90;;;;;;4936935;29;20119;-89
2023/02/25 02:00:54;;;;;;;23.10;2.38;;;6.00;99.90;;;;;;4936752;29;20066;-91
2023/02/25 02:03:32;;;;;;;21.90;2.55;;;5.90;99.90;;;;;;4943206;23;20157;-90
2023/02/25 02:06:03;;;;;;;15.45;2.83;;;5.80;99.90;;;;;;4936273;29;20095;-91
2023/02/25 02:08:31;;;;;;;23.05;4.15;;;5.20;99.90;;;;;;4978898;23;20059;-90
2023/02/25 02:11:01;;;;;;;27.42;3.28;;;5.40;99.90;;;;;;4936819;29;20421;-91
2023/02/25 02:13:37;;;;;;;22.08;3.38;;;5.90;99.90;;;;;;5108959;23;20090;-91
2023/02/25 02:16:05;;;;;;;19.48;2.50;;;5.80;99.90;;;;;;4936608;29;20051;-92
2023/02/25 02:18:41;;;;;;;24.77;3.25;;;5.10;99.90;;;;;;4937204;29;20023;-90
2023/02/25 02:21:38;;;;;;;20.80;3.15;;;5.80;99.90;;;;;;4936175;29;20031;-91
2023/02/25 02:24:43;;;;;;;16.23;2.78;;;4.90;99.90;;;;;;4936505;29;20035;-90
2023/02/25 02:27:48;;;;;;;19.50;2.63;;;5.20;99.90;;;;;;4935939;29;20107;-91
2023/02/25 02:30:45;;;;;;;25.48;3.28;;;5.30;99.90;;;;;;4928557;29;20115;-90
2023/02/25 02:33:50;;;;;;;18.90;3.10;;;5.30;99.90;;;;;;4936688;29;20027;-89
2023/02/25 02:36:55;;;;;;;17.23;2.63;;;5.30;99.90;;;;;;4935862;29;20515;-90
2023/02/25 02:39:51;;;;;;;23.77;3.22;;;5.30;99.90;;;;;;4936005;29;20546;-90
2023/02/25 02:42:29;;;;;;;23.92;3.58;;;5.40;99.90;;;;;;4935361;29;20031;-89
2023/02/25 02:49:00;;;;;;;29.23;3.60;;;5.30;99.90;;;;;;4935399;29;20103;-90
2023/02/25 02:52:05;;;;;;;18.42;3.38;;;5.40;99.90;;;;;;4936097;29;20028;-90
2023/02/25 02:57:14;;;;;;;22.98;3.10;;;5.40;99.90;;;;;;4954497;23;20071;-91
2023/02/25 03:05:16;;;;;;;18.80;2.50;;;5.30;99.90;;;;;;4950323;23;20256;-91
2023/02/25 03:10:21;;;;;;;12.55;2.28;;;5.40;99.90;;;;;;4939964;23;20058;-90
2023/02/25 03:12:50;;;;;;;17.77;4.07;;;6.00;99.90;;;;;;4936038;29;20055;-92
2023/02/25 03:15:24;;;;;;;17.35;2.63;;;6.10;99.90;;;;;;4935616;29;20558;-90
2023/02/25 03:17:56;;;;;;;23.55;2.90;;;5.90;99.90;;;;;;4935831;29;20020;-91
2023/02/25 03:20:51;;;;;;;15.13;2.67;;;6.10;99.90;;;;;;4936179;29;20023;-92
2023/02/25 03:23:28;;;;;;;18.00;2.83;;;5.10;99.90;;;;;;4935373;29;20071;-90
2023/02/25 03:26:27;;;;;;;17.63;2.70;;;5.30;99.90;;;;;;4935918;29;20031;-89
2023/02/25 03:28:55;;;;;;;13.05;2.08;;;5.30;99.90;;;;;;4926884;29;20032;-91
2023/02/25 03:31:55;;;;;;;16.35;2.72;;;5.90;99.90;;;;;;4934989;29;20036;-90
2023/02/25 03:34:56;;;;;;;17.27;2.42;;;5.10;99.90;;;;;;4934719;29;20529;-89
2023/02/25 03:37:30;;;;;;;17.30;3.58;;;5.90;99.90;;;;;;4934783;29;20035;-90
2023/02/25 03:40:06;;;;;;;14.30;2.53;;;6.10;99.90;;;;;;4935645;29;20472;-90
2023/02/25 03:42:34;;;;;;;17.08;2.08;;;5.60;99.90;;;;;;4917329;29;20036;-91
2023/02/25 03:45:04;;;;;;;16.85;2.05;;;5.50;99.90;;;;;;4934982;29;20451;-91
2023/02/25 03:47:34;;;;;;;13.30;2.10;;;5.20;99.90;;;;;;4935801;29;20111;-90
2023/02/25 03:50:06;;;;;;;9.57;1.95;;;5.90;99.90;;;;;;4935408;29;20032;-90
2023/02/25 03:52:36;;;;;;;12.95;2.40;;;5.10;99.90;;;;;;4935275;29;20114;-89
2023/02/25 03:55:06;;;;;;;17.48;2.55;;;5.10;99.90;;;;;;4935325;29;20079;-90
2023/02/25 03:57:37;;;;;;;9.55;1.67;;;5.20;99.90;;;;;;4935704;29;20038;-90
2023/02/25 04:00:36;;;;;;;14.77;2.92;;;5.70;99.90;;;;;;4934665;29;20118;-90
2023/02/25 04:03:08;;;;;;;10.73;2.30;;;5.10;99.90;;;;;;4933885;29;20079;-91
2023/02/25 04:05:37;;;;;;;14.88;2.35;;;5.80;99.90;;;;;;4935311;29;20038;-90
2023/02/25 04:08:14;;;;;;;13.95;2.80;;;5.80;99.90;;;;;;4938648;29;20027;-91
2023/02/25 04:10:42;;;;;;;14.07;1.90;;;6.00;99.90;;;;;;4938911;29;20527;-91
2023/02/25 04:13:14;;;;;;;19.52;2.33;;;5.80;99.90;;;;;;4938529;29;20043;-90
2023/02/25 04:15:40;;;;;;;13.40;2.35;;;5.60;99.90;;;;;;4939040;29;20035;-90
2023/02/25 04:18:12;;;;;;;15.27;2.08;;;5.20;99.90;;;;;;4938969;29;20078;-91
2023/02/25 04:20:41;;;;;;;13.02;2.58;;;5.70;99.90;;;;;;4938321;29;20034;-90
2023/02/25 04:23:14;;;;;;;16.48;2.45;;;5.40;99.90;;;;;;4938469;29;20047;-90
2023/02/25 04:25:42;;;;;;;16.40;2.53;;;5.30;99.90;;;;;;4938874;29;20028;-90
2023/02/25 04:28:09;;;;;;;19.90;2.47;;;5.50;99.90;;;;;;4938216;29;20106;-89
2023/02/25 04:30:41;;;;;;;21.02;2.60;;;5.50;99.90;;;;;;4938706;29;20020;-90
2023/02/25 04:33:48;;;;;;;19.73;2.50;;;4.90;99.90;;;;;;4938618;29;20098;-89
2023/02/25 04:36:44;;;;;;;21.80;3.58;;;4.40;99.90;;;;;;4938369;29;20046;-91
2023/02/25 04:39:17;;;;;;;12.77;2.17;;;5.70;99.90;;;;;;4917690;29;20092;-91
2023/02/25 04:41:45;;;;;;;15.55;2.38;;;4.80;99.90;;;;;;4917252;29;20036;-89
2023/02/25 04:44:17;;;;;;;13.18;2.22;;;5.60;99.90;;;;;;4938286;29;20046;-90
2023/02/25 04:46:50;;;;;;;19.25;3.45;;;5.50;99.90;;;;;;4938652;29;20554;-92
2023/02/25 04:49:20;;;;;;;7.63;2.50;;;5.90;99.90;;;;;;4937968;29;20481;-91
2023/02/25 04:51:50;;;;;;;23.45;3.47;;;5.80;99.90;;;;;;4938376;29;20047;-91
2023/02/25 04:54:19;;;;;;;19.58;2.50;;;5.90;99.90;;;;;;4937913;29;20051;-91
2023/02/25 04:56:48;;;;;;;14.80;2.83;;;5.70;99.90;;;;;;4937619;29;20028;-90
2023/02/25 04:59:25;;;;;;;21.02;2.90;;;5.20;99.90;;;;;;4938109;29;20051;-90
2023/02/25 05:01:51;;;;;;;16.17;2.90;;;5.00;99.90;;;;;;4937530;29;20047;-90
2023/02/25 05:04:22;;;;;;;14.63;2.25;;;5.60;99.90;;;;;;4937611;29;20036;-90
2023/02/25 05:06:51;;;;;;;6.28;1.70;;;5.60;99.90;;;;;;4937822;29;20030;-91
2023/02/25 05:09:22;;;;;;;23.42;2.42;;;4.90;99.90;;;;;;4935705;29;20458;-89
2023/02/25 05:11:54;;;;;;;9.40;1.85;;;5.90;99.90;;;;;;4938064;29;20040;-90
2023/02/25 05:14:31;;;;;;;14.75;1.52;;;5.50;99.90;;;;;;4937724;29;20392;-90
2023/02/25 05:17:00;;;;;;;11.18;1.35;;;5.60;99.90;;;;;;4936634;29;20107;-89
2023/02/25 05:19:32;;;;;;;12.93;2.85;;;4.90;99.90;;;;;;4937180;29;20023;-90
2023/02/25 05:22:08;;;;;;;14.98;2.20;;;5.50;99.90;;;;;;4937616;29;20392;-91
2023/02/25 05:24:37;;;;;;;10.77;2.33;;;5.30;99.90;;;;;;4937026;29;20043;-92
2023/02/25 05:27:08;;;;;;;12.65;2.40;;;5.50;99.90;;;;;;4936916;29;20122;-90
2023/02/25 05:29:39;;;;;;;13.98;2.58;;;5.80;99.90;;;;;;4937820;29;20127;-90
2023/02/25 05:32:08;;;;;;;17.63;2.75;;;4.80;99.90;;;;;;4936906;29;20035;-91
2023/02/25 05:34:43;;;;;;;11.70;2.00;;;5.30;99.90;;;;;;4937627;29;20499;-90
2023/02/25 05:37:14;;;;;;;19.10;2.40;;;5.50;99.90;;;;;;4935973;29;20035;-90
2023/02/25 05:39:46;;;;;;;19.38;3.20;;;5.50;99.90;;;;;;4951646;23;20044;-91
2023/02/25 05:44:56;;;;;;;14.85;2.35;;;4.80;99.90;;;;;;4976937;23;20161;-90
2023/02/25 05:47:25;;;;;;;;;;;5.30;99.90;;;;;;4937902;29;20047;-90
2023/02/25 05:49:57;;;;;;;19.17;3.25;;;4.70;99.90;;;;;;4937619;29;19934;-91
2023/02/25 05:52:32;;;;;;;10.25;2.30;;;5.30;99.90;;;;;;4936869;29;20032;-90
2023/02/25 05:55:04;;;;;;;7.50;2.67;;;4.70;99.90;;;;;;4936825;29;20051;-90
2023/02/25 05:57:33;;;;;;;16.98;2.75;;;4.80;99.90;;;;;;4937193;29;20032;-91
2023/02/25 06:00:08;;;;;;;16.27;2.42;;;6.00;99.90;;;;;;4936671;29;20020;-89
2023/02/25 06:02:40;;;;;;;18.52;3.15;;;4.80;99.90;;;;;;4937004;29;20439;-93
2023/02/25 06:05:07;;;;;;;17.80;3.15;;;6.00;99.90;;;;;;4935075;29;20552;-91
2023/02/25 06:07:38;;;;;;;17.48;2.75;;;4.70;99.90;;;;;;4926046;29;20038;-92
2023/02/25 06:10:07;;;;;;;17.15;3.03;;;5.20;99.90;;;;;;4951790;29;20034;-91
2023/02/25 06:12:42;;;;;;;11.48;2.10;;;4.70;99.90;;;;;;4951545;29;20031;-90
2023/02/25 06:15:15;;;;;;;19.13;4.20;;;5.40;99.90;;;;;;4944293;29;20035;-90
2023/02/25 06:17:44;;;;;;;21.83;2.75;;;4.80;99.90;;;;;;4935029;29;20032;-90
2023/02/25 06:20:17;;;;;;;20.63;2.90;;;6.10;99.90;;;;;;4943234;29;20027;-90
2023/02/25 06:22:45;;;;;;;22.88;3.63;;;4.80;99.90;;;;;;4943040;29;20027;-89
2023/02/25 06:25:17;;;;;;;23.58;3.78;;;4.70;99.90;;;;;;4934107;29;20364;-90
2023/02/25 06:27:46;;;;;;;16.10;2.28;;;4.60;99.90;;;;;;4942978;29;20493;-89
2023/02/25 06:30:17;;;;;;;21.13;3.03;;;6.00;99.90;;;;;;4935426;29;20031;-91
2023/02/25 06:32:46;;;;;;;22.67;3.58;;;4.70;99.90;;;;;;4935746;29;20030;-93
2023/02/25 06:35:51;;;;;;;26.42;4.82;;;5.50;99.90;;;;;;4934894;29;20027;-91
2023/02/25 06:38:20;;;;;;;18.40;2.72;;;4.60;99.90;;;;;;4941173;29;20035;-89
2023/02/25 06:40:49;;;;;;;20.92;3.25;;;4.60;99.90;;;;;;4944106;29;20086;-89
2023/02/25 06:43:20;;;;;;;21.35;2.83;;;5.10;99.90;;;;;;4945572;29;20126;-89
2023/02/25 06:45:55;;;;;;;21.48;3.10;;;5.20;99.90;;;;;;4945480;29;20090;-90
2023/02/25 06:48:33;;;;;;;16.13;2.60;;;5.40;99.90;;;;;;4940992;29;20040;-92
2023/02/25 06:51:09;;;;;;;24.40;3.22;;;4.80;99.90;;;;;;4943080;23;20055;-92
2023/02/25 06:56:11;;;;;;;26.50;3.55;;;4.70;99.90;;;;;;4940368;23;20094;-92
2023/02/25 06:58:43;;;;;;;;;;;5.40;99.90;;;;;;4936685;29;20555;-91
2023/02/25 07:01:16;;;;;;;18.42;2.35;;;4.70;99.90;;;;;;4935518;29;19907;-90
2023/02/25 07:03:44;;;;;;;18.02;2.95;;;4.80;99.90;;;;;;4950106;29;20039;-89
2023/02/25 07:06:16;;;;;;;23.98;3.25;;;4.60;99.90;;;;;;4955712;29;20102;-91
2023/02/25 07:08:45;;;;;;;22.65;2.67;;;5.40;99.90;;;;;;4954805;29;20027;-90
2023/02/25 07:11:47;;;;;;;17.45;2.60;;;5.80;99.90;;;;;;4955111;29;20019;-91
2023/02/25 07:14:27;;;;;;;25.27;3.10;;;5.60;99.90;;;;;;4954935;29;20053;-93
2023/02/25 07:16:52;;;;;;;16.88;2.72;;;5.30;99.90;;;;;;4954950;29;20127;-91
2023/02/25 07:19:30;;;;;;;17.50;3.00;;;5.30;99.90;;;;;;4955304;29;20114;-92
2023/02/25 07:22:16;;;;;;;20.15;2.60;;;5.50;99.90;;;;;;4955047;29;20039;-92
2023/02/25 07:24:52;;;;;;;26.02;3.22;;;4.90;99.90;;;;;;4942365;29;20047;-90
2023/02/25 07:27:26;;;;;;;30.25;3.53;;;5.70;99.90;;;;;;4940267;29;20035;-90
2023/02/25 07:30:08;;;;;;;17.40;2.55;;;5.60;99.90;;;;;;4945107;29;20055;-91
2023/02/25 07:35:26;;;;;;;19.77;2.95;;;5.00;99.90;;;;;;4980156;23;20117;-91
2023/02/25 07:37:54;;;;;;;18.38;3.55;;;6.10;99.90;;;;;;4935541;29;20033;-90
2023/02/25 07:41:01;;;;;;;18.25;3.42;;;5.50;99.90;;;;;;4944455;28;20090;-89
2023/02/25 07:43:30;;;;;;;28.88;4.57;;;5.00;99.90;;;;;;4946438;29;20440;-91
2023/02/25 07:46:02;;;;;;;11.90;2.90;;;5.80;99.90;;;;;;4943541;29;20028;-90
2023/02/25 07:48:37;;;;;;;14.82;2.65;;;5.10;99.90;;;;;;4946973;29;20558;-91
2023/02/25 07:51:08;;;;;;;25.98;4.03;;;6.80;99.90;;;;;;4956134;29;20102;-90
2023/02/25 07:53:34;;;;;;;13.63;3.63;;;5.10;99.90;;;;;;5009554;23;20058;-92
2023/02/25 07:56:04;;;;;;;19.90;3.38;;;6.00;99.90;;;;;;4941630;29;20024;-91
2023/02/25 07:58:33;;;;;;;21.02;4.93;;;5.20;99.90;;;;;;4938898;29;20049;-91
2023/02/25 08:01:34;;;;;;;21.75;2.90;;;6.20;99.90;;;;;;4939430;29;20106;-91
2023/02/25 08:04:04;;;;;;;22.75;3.33;;;5.30;99.90;;;;;;4939080;29;20050;-91
2023/02/25 08:06:40;;;;;;;18.88;2.70;;;4.70;99.90;;;;;;4938907;29;20075;-91
2023/02/25 08:09:09;;;;;;;21.55;3.33;;;5.80;99.90;;;;;;4939275;29;20028;-90
2023/02/25 08:11:39;;;;;;;29.08;3.10;;;5.90;99.90;;;;;;4938611;29;20035;-90
2023/02/25 08:14:10;;;;;;;27.65;2.90;;;5.50;99.90;;;;;;4939839;29;20019;-91
2023/02/25 08:16:42;;;;;;;19.00;3.92;;;5.30;99.90;;;;;;4939391;29;20034;-91
2023/02/25 08:19:17;;;;;;;27.83;3.45;;;6.30;99.90;;;;;;4938635;29;20027;-93
2023/02/25 08:21:48;;;;;;;18.88;3.20;;;6.10;99.90;;;;;;4938842;29;20043;-90
2023/02/25 08:24:21;;;;;;;24.85;3.92;;;5.40;99.90;;;;;;4938613;29;20040;-91
2023/02/25 08:26:50;;;;;;;31.27;3.80;;;6.10;99.90;;;;;;4938341;29;20028;-90
2023/02/25 08:29:22;;;;;;;30.42;4.05;;;6.10;99.90;;;;;;4938427;29;20028;-90
2023/02/25 08:31:51;;;;;;;24.08;4.60;;;5.40;99.90;;;;;;4938697;29;20027;-91
2023/02/25 08:34:28;;;;;;;18.98;3.28;;;6.30;99.90;;;;;;4937994;29;20038;-91
2023/02/25 08:39:28;;;;;;;16.00;3.15;;;5.50;99.90;;;;;;4943157;23;20138;-90
2023/02/25 08:41:59;;;;;;;22.00;3.20;;;5.70;99.90;;;;;;4937759;29;20039;-91
2023/02/25 08:44:25;;;;;;;13.68;2.88;;;7.00;99.90;;;;;;4938297;29;20095;-91
2023/02/25 08:46:54;;;;;;;21.52;3.60;;;5.60;99.90;;;;;;4937821;29;20024;-92
2023/02/25 08:49:25;;;;;;;26.08;4.45;;;6.70;99.90;;;;;;4939251;29;20031;-91
2023/02/25 08:52:00;;;;;;;18.67;3.50;;;6.80;99.90;;;;;;4944913;28;20019;-91
2023/02/25 08:54:32;;;;;;;27.58;3.63;;;6.60;99.90;;;;;;4956592;29;20027;-90
2023/02/25 08:57:00;;;;;;;16.60;3.17;;;6.30;99.90;;;;;;4956779;29;20569;-91
2023/02/25 08:59:34;;;;;;;15.82;3.60;;;6.40;99.90;;;;;;4951314;29;20028;-92
2023/02/25 09:02:02;;;;;;;22.15;3.38;;;6.60;99.90;;;;;;4952911;23;20063;-91
2023/02/25 09:04:28;;;;;;;26.92;4.13;;;6.60;99.90;;;;;;4938647;29;20031;-91
2023/02/25 09:07:01;;;;;;;34.15;3.85;;;6.70;99.90;;;;;;4943283;29;20027;-91
2023/02/25 09:09:27;;;;;;;22.17;4.28;;;6.70;99.90;;;;;;4940107;29;20110;-93
2023/02/25 09:11:56;;;;;;;26.13;3.90;;;6.70;99.90;;;;;;4948846;29;20429;-92
2023/02/25 09:14:24;;;;;;;15.77;2.58;;;6.60;99.90;;;;;;4951972;29;20541;-92
2023/02/25 09:16:53;;;;;;;22.05;3.03;;;6.30;99.90;;;;;;4956767;29;20471;-92
2023/02/25 09:19:19;;;;;;;37.67;4.32;;;6.80;99.90;;;;;;4957081;29;20023;-93
2023/02/25 09:21:51;;;;;;;22.75;3.35;;;6.80;99.90;;;;;;4957504;29;20031;-92
2023/02/25 09:24:19;;;;;;;13.98;3.47;;;6.80;99.90;;;;;;4956957;29;20121;-93
2023/02/25 09:26:51;;;;;;;17.23;3.50;;;6.60;99.90;;;;;;4957329;29;20023;-92
2023/02/25 09:29:17;;;;;;;18.23;2.65;;;6.70;99.90;;;;;;4956567;29;20036;-92
2023/02/25 09:31:45;;;;;;;10.70;2.85;;;6.30;99.90;;;;;;4953011;23;20066;-91
2023/02/25 09:36:48;;;;;;;10.18;2.17;;;5.90;99.90;;;;;;4974380;23;20055;-92
2023/02/25 09:39:18;;;;;;;7.63;2.20;;;5.80;99.90;;;;;;4981973;23;20191;-93
2023/02/25 09:44:48;;;;;;;10.90;1.90;;;6.00;99.90;;;;;;4944006;23;20063;-91
2023/02/25 09:50:24;;;;;;;5.68;1.55;;;6.00;99.90;;;;;;4957580;23;20097;-90
2023/02/25 09:53:27;;;;;;;7.72;1.17;;;5.70;99.90;;;;;;4937086;29;20034;-93
2023/02/25 09:56:05;;;;;;;8.10;1.27;;;5.80;99.90;;;;;;4937095;29;20036;-89
2023/02/25 09:58:45;;;;;;;14.07;2.05;;;6.80;99.90;;;;;;4936298;29;20026;-92
2023/02/25 10:01:18;;;;;;;9.20;2.58;;;6.10;99.90;;;;;;4936838;29;20045;-92
2023/02/25 10:04:23;;;;;;;9.98;1.70;;;5.90;99.90;;;;;;4950217;23;20060;-88
2023/02/25 10:07:34;;;;;;;13.15;2.58;;;6.10;99.90;;;;;;4936820;29;20468;-87
2023/02/25 10:13:48;;;;;;;10.48;2.03;;;6.00;99.90;;;;;;4936047;29;20087;-88
2023/02/25 10:25:29;;;;;;;4.70;0.70;;;6.20;99.90;;;;;;4962339;23;20066;-89
2023/02/25 10:31:06;;;;;;;7.35;1.15;;;7.00;99.90;;;;;;4967150;23;20048;-92
2023/02/25 10:38:51;;;;;;;3.85;0.90;;;6.20;99.90;;;;;;5083332;23;20062;-91
2023/02/25 10:41:25;;;;;;;3.85;0.90;;;6.90;99.90;;;;;;4935596;29;20087;-92
2023/02/25 10:43:54;;;;;;;5.60;0.82;;;6.90;99.90;;;;;;4936112;29;20040;-90
2023/02/25 10:46:53;;;;;;;7.00;0.88;;;7.00;99.90;;;;;;4935413;29;20035;-91
2023/02/25 10:49:37;;;;;;;5.88;1.10;;;6.40;99.90;;;;;;4935645;29;20032;-90
2023/02/25 10:52:24;;;;;;;8.60;1.42;;;7.50;99.90;;;;;;4935962;29;20035;-89
2023/02/25 10:55:02;;;;;;;6.68;1.10;;;6.50;99.90;;;;;;4935365;29;20027;-90
2023/02/25 10:57:51;;;;;;;4.90;1.23;;;6.60;99.90;;;;;;4943124;23;20087;-90
2023/02/25 11:18:49;;;;;;;15.05;1.45;;;6.90;99.90;;;;;;4942820;23;20491;-90
2023/02/25 11:21:52;;;;;;;7.00;1.63;;;6.90;99.90;;;;;;4925797;29;20495;-93
2023/02/25 11:24:30;;;;;;;10.35;2.25;;;7.00;99.90;;;;;;4939940;29;20071;-90
2023/02/25 11:27:07;;;;;;;6.93;2.03;;;7.80;99.90;;;;;;4939971;29;20164;-90
2023/02/25 11:29:38;;;;;;;7.35;1.35;;;7.00;99.90;;;;;;4939462;29;20032;-90
2023/02/25 11:34:55;;;;;;;9.98;1.58;;;7.00;99.90;;;;;;4993315;23;20201;-92
2023/02/25 11:37:54;;;;;;;11.75;2.00;;;7.50;99.90;;;;;;4947152;23;20056;-90
2023/02/25 11:40:30;;;;;;;5.97;0.82;;;6.90;99.90;;;;;;4946734;23;20063;-90
2023/02/25 11:43:30;;;;;;;8.85;1.55;;;7.30;99.90;;;;;;4939237;29;20028;-90
2023/02/25 11:46:31;;;;;;;13.50;1.35;;;6.80;99.90;;;;;;4940031;29;20031;-90
2023/02/25 11:49:29;;;;;;;13.75;1.17;;;6.70;99.90;;;;;;4939612;29;20039;-92
2023/02/25 11:52:35;;;;;;;8.75;1.98;;;7.30;99.90;;;;;;4939369;29;20074;-90
2023/02/25 11:55:36;;;;;;;4.45;1.40;;;6.80;99.90;;;;;;4940268;29;20028;-91
2023/02/25 11:58:39;;;;;;;3.85;1.17;;;6.70;99.90;;;;;;4938601;29;20070;-89
2023/02/25 12:10:01;;;;;;;8.77;1.20;;;6.50;99.90;;;;;;4953162;23;20139;-89
2023/02/25 12:13:07;;;;;;;13.55;1.73;;;6.40;99.90;;;;;;4939009;29;20520;-90
2023/02/25 12:16:10;;;;;;;9.48;1.30;;;6.40;99.90;;;;;;4939106;29;20082;-90
2023/02/25 12:19:13;;;;;;;12.15;1.13;;;7.00;99.90;;;;;;4938792;29;20396;-90
2023/02/25 12:22:17;;;;;;;7.10;1.20;;;6.50;99.90;;;;;;4938773;29;20030;-90
2023/02/25 12:25:19;;;;;;;6.47;1.25;;;6.50;99.90;;;;;;4938076;29;20044;-90
2023/02/25 12:28:19;;;;;;;8.18;1.13;;;6.50;99.90;;;;;;4937974;29;20356;-90
2023/02/25 12:31:19;;;;;;;4.93;1.35;;;6.60;99.90;;;;;;4938472;29;20039;-91
2023/02/25 12:37:26;;;;;;;7.07;1.92;;;7.50;99.90;;;;;;4938249;29;20047;-90
2023/02/25 12:54:24;;;;;;;11.02;1.83;;;7.00;99.90;;;;;;5471307;23;21220;-91
2023/02/25 12:57:24;;;;;;;4.90;1.35;;;7.10;99.90;;;;;;4917971;29;20476;-92
2023/02/25 13:00:32;;;;;;;5.05;1.30;;;7.20;99.90;;;;;;4931021;23;20058;-90
2023/02/25 13:05:35;;;;;;;4.18;1.10;;;7.40;99.90;;;;;;4956961;23;20358;-91
2023/02/25 13:25:55;;;;;;;11.05;1.67;;;7.60;99.90;;;;;;5150270;23;20064;-89
2023/02/25 13:28:20;;;;;;;16.58;1.80;;;7.60;99.90;;;;;;4931170;29;20047;-90
2023/02/25 13:31:21;;;;;;;8.52;1.33;;;7.60;99.90;;;;;;4938263;29;20396;-90
2023/02/25 13:34:22;;;;;;;8.40;1.55;;;7.70;99.90;;;;;;4940817;29;20024;-89
2023/02/25 13:37:03;;;;;;;;;;;7.70;99.90;;;;;;4944292;29;20035;-90
2023/02/25 13:40:04;;;;;;;13.15;2.28;;;7.80;99.90;;;;;;4940376;28;20346;-89
2023/02/25 14:22:04;;;;;;;;;;;7.90;99.90;;;;;;4958277;23;20066;-89
2023/02/25 14:36:27;;;;;;;7.85;1.70;;;8.10;99.90;;;;;;4878397;29;20060;-90
2023/02/25 17:11:59;;;;;;;9.18;1.88;;;6.80;99.90;;;;;;4935944;29;20078;-91
2023/02/25 17:14:25;;;;;;;5.63;1.60;;;6.90;99.90;;;;;;4936011;29;20032;-90
2023/02/25 17:16:55;;;;;;;6.53;1.38;;;7.20;99.90;;;;;;4935841;29;20544;-91
2023/02/25 17:19:27;;;;;;;9.98;1.77;;;7.20;99.90;;;;;;4936356;29;20028;-90
2023/02/25 17:21:58;;;;;;;9.82;2.33;;;7.10;99.90;;;;;;4936367;29;20437;-89
2023/02/25 17:24:31;;;;;;;7.60;1.83;;;7.10;99.90;;;;;;4942512;29;20138;-91
2023/02/25 17:26:57;;;;;;;8.25;1.98;;;6.90;99.90;;;;;;4943257;29;20028;-90
2023/02/25 17:29:35;;;;;;;6.55;1.63;;;7.10;99.90;;;;;;4942750;29;20039;-90
2023/02/25 17:32:31;;;;;;;6.13;1.65;;;6.90;99.90;;;;;;4923725;29;20388;-91
2023/02/25 17:35:05;;;;;;;8.70;2.05;;;6.40;99.90;;;;;;4917521;29;20024;-91
2023/02/25 17:37:55;;;;;;;5.13;1.65;;;6.40;99.90;;;;;;4919097;29;20527;-90
2023/02/25 17:44:37;;;;;;;;;;;;;;;;;;;;;
2023/02/25 17:47:59;;;;;;;10.70;2.17;;;6.20;99.90;;;;;;4817802;29;20040;-91
2023/02/25 19:04:15;;;;;;;10.18;5.07;;;5.30;99.90;;;;;;4817141;29;20577;-91
2023/02/25 19:33:16;;;;;;;24.48;7.50;;;4.60;99.90;;;;;;5449472;23;20052;-90
2023/02/25 22:49:16;;;;;;;10.68;2.60;;;3.40;99.90;;;;;;4897458;29;20087;-93
2023/02/25 23:01:08;;;;;;;10.18;3.17;;;3.40;99.90;;;;;;4955233;23;20071;-91
2023/02/25 23:06:10;;;;;;;7.65;3.25;;;3.40;99.90;;;;;;4937430;23;20080;-92
2023/02/25 23:08:45;;;;;;;7.90;2.83;;;4.20;99.90;;;;;;4933952;29;20122;-90
2023/02/25 23:11:44;;;;;;;9.48;2.90;;;3.40;99.90;;;;;;4932682;29;20030;-90
2023/02/25 23:14:15;;;;;;;6.35;2.88;;;3.80;99.90;;;;;;4910415;29;20115;-92
2023/02/25 23:16:52;;;;;;;12.52;3.20;;;3.40;99.90;;;;;;4911779;29;20021;-91
2023/02/25 23:19:23;;;;;;;9.60;2.65;;;3.80;99.90;;;;;;4910546;29;20032;-90
2023/02/25 23:21:57;;;;;;;9.80;2.88;;;2.60;99.90;;;;;;4911901;29;20068;-90
2023/02/25 23:24:31;;;;;;;6.65;2.25;;;3.20;99.90;;;;;;4933152;29;20603;-90
2023/02/25 23:26:59;;;;;;;8.82;2.35;;;3.70;99.90;;;;;;4934220;29;20107;-91
2023/02/25 23:40:14;;;;;;;6.85;2.85;;;3.30;99.90;;;;;;4953805;23;20076;-91
2023/02/25 23:45:17;;;;;;;4.60;1.95;;;3.20;99.90;;;;;;4938325;23;20452;-93
2023/02/25 23:47:50;;;;;;;7.75;2.15;;;3.20;99.90;;;;;;4933704;29;20028;-91
2023/02/25 23:50:22;;;;;;;16.65;3.17;;;3.50;99.90;;;;;;4934384;29;20079;-91
2023/02/25 23:55:27;;;;;;;6.53;2.85;;;3.20;99.90;;;;;;4938164;23;20059;-91
2023/02/25 23:58:03;;;;;;;7.95;2.40;;;3.60;99.90;;;;;;4933978;29;20035;-91
